createdAt,value
2022-10-23T00:01:47.134Z,100435.19
2022-10-23T00:04:25.395Z,100438.81
2022-10-23T00:06:53.360Z,100433.88
2022-10-23T00:09:24.591Z,100416.66
2022-10-23T00:11:53.734Z,100403.66
2022-10-23T00:14:24.850Z,100419.84
2022-10-23T00:16:52.790Z,100425.38
2022-10-23T00:19:20.595Z,100416.91
2022-10-23T00:21:48.665Z,100437.22
2022-10-23T00:24:17.040Z,100425.91
2022-10-23T00:26:44.995Z,100411.13
2022-10-23T00:29:12.916Z,100427.88
2022-10-23T00:31:40.915Z,100421.72
2022-10-23T00:34:09.311Z,100423.59
2022-10-23T00:36:38.888Z,100407.84
2022-10-23T00:39:10.807Z,100415.03
2022-10-23T00:41:38.679Z,100415.09
2022-10-23T00:44:31.285Z,100403.13
2022-10-23T00:47:00.198Z,100420.44
2022-10-23T00:49:32.498Z,100428.34
2022-10-23T00:52:07.957Z,100418.47
2022-10-23T00:54:43.570Z,100420.38
2022-10-23T00:57:15.688Z,100397.72
2022-10-23T00:59:43.840Z,100402.72
2022-10-23T01:02:14.731Z,100413.19
2022-10-23T01:04:42.968Z,100406.19
2022-10-23T01:07:18.334Z,100414.16
2022-10-23T01:10:13.095Z,100403.34
2022-10-23T01:13:02.857Z,100383.16
2022-10-23T01:15:53.732Z,100393.03
2022-10-23T01:18:52.503Z,100398.56
2022-10-23T01:21:53.688Z,100387.63
2022-10-23T01:24:47.170Z,100385.19
2022-10-23T01:27:36.659Z,100391.50
2022-10-23T01:30:14.214Z,100385.38
2022-10-23T01:32:57.709Z,100389.16
2022-10-23T01:35:45.651Z,100375.84
2022-10-23T01:38:27.560Z,100386.56
2022-10-23T01:41:07.527Z,100360.53
2022-10-23T01:44:01.998Z,100390.50
2022-10-23T01:46:37.827Z,100380.03
2022-10-23T01:49:13.063Z,100383.59
2022-10-23T01:51:46.597Z,100378.22
2022-10-23T01:54:16.721Z,100355.72
2022-10-23T01:56:49.116Z,100377.47
2022-10-23T01:59:28.347Z,100374.94
2022-10-23T02:01:59.143Z,100375.97
2022-10-23T02:04:57.872Z,100343.47
2022-10-23T02:07:26.399Z,100357.03
2022-10-23T02:09:54.515Z,100353.34
2022-10-23T02:12:46.071Z,100356.81
2022-10-23T02:15:25.884Z,100356.97
2022-10-23T02:18:24.815Z,100358.78
2022-10-23T02:21:26.515Z,100359.81
2022-10-23T02:24:05.260Z,100352.88
2022-10-23T02:26:42.573Z,100347.66
2022-10-23T02:29:28.429Z,100352.03
2022-10-23T02:31:59.334Z,100353.97
2022-10-23T02:34:28.098Z,100350.97
2022-10-23T02:36:56.935Z,100328.31
2022-10-23T02:39:45.407Z,100324.94
2022-10-23T02:43:09.550Z,100325.56
2022-10-23T02:46:09.091Z,100334.28
2022-10-23T02:48:49.066Z,100330.50
2022-10-23T02:51:32.075Z,100333.81
2022-10-23T02:54:13.063Z,100319.88
2022-10-23T02:56:54.620Z,100305.25
2022-10-23T02:59:44.006Z,100324.47
2022-10-23T03:02:26.074Z,100331.78
2022-10-23T03:04:55.774Z,100328.41
2022-10-23T03:07:28.425Z,100311.47
2022-10-23T03:10:05.944Z,100329.88
2022-10-23T03:12:34.677Z,100327.22
2022-10-23T03:15:02.546Z,100316.34
2022-10-23T03:17:30.595Z,100307.50
2022-10-23T03:20:01.158Z,100316.97
2022-10-23T03:22:29.408Z,100331.94
2022-10-23T03:24:58.506Z,100301.13
2022-10-23T03:27:26.832Z,100304.69
2022-10-23T03:29:56.117Z,100307.72
2022-10-23T03:32:23.839Z,100300.56
2022-10-23T03:34:52.677Z,100312.59
2022-10-23T03:37:21.426Z,100312.75
2022-10-23T03:39:49.253Z,100328.22
2022-10-23T03:42:18.593Z,100315.78
2022-10-23T03:44:46.473Z,100319.09
2022-10-23T03:47:15.412Z,100335.38
2022-10-23T03:49:43.228Z,100330.53
2022-10-23T03:52:12.044Z,100312.63
2022-10-23T03:54:40.649Z,100315.66
2022-10-23T03:57:09.633Z,100310.00
2022-10-23T03:59:37.645Z,100306.28
2022-10-23T04:02:07.291Z,100300.06
2022-10-23T04:04:35.372Z,100294.59
2022-10-23T04:07:04.763Z,100297.97
2022-10-23T04:09:34.127Z,100293.81
2022-10-23T04:12:06.631Z,100298.94
2022-10-23T04:14:34.862Z,100293.63
2022-10-23T04:17:05.568Z,100281.03
2022-10-23T04:19:33.523Z,100280.06
2022-10-23T04:22:01.355Z,100277.22
2022-10-23T04:24:32.083Z,100291.72
2022-10-23T04:27:00.030Z,100299.63
2022-10-23T04:29:32.483Z,100290.59
2022-10-23T04:32:00.217Z,100298.13
2022-10-23T04:34:29.464Z,100290.94
2022-10-23T04:36:58.352Z,100271.47
2022-10-23T04:39:27.759Z,100287.03
2022-10-23T04:41:55.465Z,100287.78
2022-10-23T04:44:26.232Z,100303.81
2022-10-23T04:46:54.082Z,100298.47
2022-10-23T04:49:24.100Z,100298.25
2022-10-23T04:52:11.776Z,100283.13
2022-10-23T04:55:08.132Z,100294.44
2022-10-23T04:57:47.599Z,100314.19
2022-10-23T05:00:17.966Z,100309.50
2022-10-23T05:02:51.689Z,100292.81
2022-10-23T05:05:20.959Z,100297.72
2022-10-23T05:08:08.068Z,100294.88
2022-10-23T05:10:43.894Z,100264.94
2022-10-23T05:13:19.954Z,100284.63
2022-10-23T05:15:49.512Z,100265.03
2022-10-23T05:18:32.924Z,100262.56
2022-10-23T05:21:30.929Z,100260.56
2022-10-23T05:24:02.074Z,100270.63
2022-10-23T05:26:32.176Z,100260.41
2022-10-23T05:29:05.362Z,100240.72
2022-10-23T05:31:36.215Z,100250.25
2022-10-23T05:34:13.973Z,100256.56
2022-10-23T05:36:46.864Z,100275.63
2022-10-23T05:39:17.380Z,100282.03
2022-10-23T05:41:47.506Z,100268.91
2022-10-23T05:44:21.497Z,100265.09
2022-10-23T05:47:08.477Z,100263.25
2022-10-23T05:49:55.468Z,100258.94
2022-10-23T05:52:50.670Z,100256.16
2022-10-23T05:55:31.431Z,100239.56
2022-10-23T05:58:25.005Z,100235.84
2022-10-23T06:01:16.596Z,100238.53
2022-10-23T06:04:03.308Z,100224.63
2022-10-23T06:06:47.857Z,100238.03
2022-10-23T06:09:16.673Z,100244.16
2022-10-23T06:11:45.029Z,100227.38
2022-10-23T06:14:19.450Z,100235.53
2022-10-23T06:16:50.073Z,100233.00
2022-10-23T06:19:18.933Z,100230.16
2022-10-23T06:21:48.575Z,100212.78
2022-10-23T06:24:20.659Z,100225.66
2022-10-23T06:26:57.742Z,100227.06
2022-10-23T06:29:39.032Z,100220.16
2022-10-23T06:32:08.856Z,100214.78
2022-10-23T06:34:38.984Z,100212.94
2022-10-23T06:37:08.732Z,100221.19
2022-10-23T06:39:47.371Z,100220.34
2022-10-23T06:42:27.575Z,100207.78
2022-10-23T06:44:55.753Z,100199.75
2022-10-23T06:47:45.117Z,100213.25
2022-10-23T06:50:31.525Z,100209.78
2022-10-23T06:53:06.249Z,100220.34
2022-10-23T06:58:11.997Z,100221.56
2022-10-23T07:00:57.241Z,100230.13
2022-10-23T07:03:25.345Z,100230.88
2022-10-23T07:05:54.999Z,100232.34
2022-10-23T07:08:24.280Z,100237.41
2022-10-23T07:10:56.775Z,100224.69
2022-10-23T07:13:25.952Z,100222.81
2022-10-23T07:16:08.187Z,100220.19
2022-10-23T07:18:35.952Z,100227.78
2022-10-23T07:21:22.569Z,100234.78
2022-10-23T07:23:54.109Z,100233.47
2022-10-23T07:26:24.064Z,100243.72
2022-10-23T07:28:55.254Z,100270.97
2022-10-23T07:31:28.174Z,100246.06
2022-10-23T07:34:15.085Z,100261.56
2022-10-23T07:36:45.862Z,100256.53
2022-10-23T07:39:15.380Z,100245.72
2022-10-23T07:41:49.711Z,100247.84
2022-10-23T07:44:21.020Z,100245.47
2022-10-23T07:46:51.527Z,100248.59
2022-10-23T07:49:19.807Z,100266.06
2022-10-23T07:51:51.554Z,100260.22
2022-10-23T07:54:20.434Z,100240.53
2022-10-23T07:56:53.815Z,100250.78
2022-10-23T07:59:41.791Z,100252.44
2022-10-23T08:02:16.074Z,100241.50
2022-10-23T08:04:48.335Z,100243.88
2022-10-23T08:07:27.720Z,100243.78
2022-10-23T08:09:57.928Z,100232.94
2022-10-23T08:12:33.196Z,100230.69
2022-10-23T08:15:02.844Z,100227.53
2022-10-23T08:17:41.843Z,100234.44
2022-10-23T08:20:15.572Z,100234.91
2022-10-23T08:22:45.601Z,100234.44
2022-10-23T08:25:21.924Z,100224.31
2022-10-23T08:27:53.594Z,100225.75
2022-10-23T08:30:21.474Z,100225.91
2022-10-23T08:32:51.847Z,100227.41
2022-10-23T08:35:20.255Z,100234.88
2022-10-23T08:37:48.834Z,100217.84
2022-10-23T08:40:24.575Z,100238.03
2022-10-23T08:43:41.572Z,100239.34
2022-10-23T08:46:28.622Z,100220.50
2022-10-23T08:49:55.463Z,100214.50
2022-10-23T08:52:52.747Z,100209.66
2022-10-23T08:55:29.369Z,100206.34
2022-10-23T08:58:23.589Z,100203.97
2022-10-23T09:00:53.024Z,100217.22
2022-10-23T09:03:22.184Z,100208.50
2022-10-23T09:06:26.279Z,100201.50
2022-10-23T09:09:20.911Z,100198.34
2022-10-23T09:12:16.937Z,100199.53
2022-10-23T09:15:14.903Z,100185.88
2022-10-23T09:17:45.018Z,100190.81
2022-10-23T09:20:45.064Z,100204.56
2022-10-23T09:23:24.361Z,100191.09
2022-10-23T09:25:57.136Z,100181.59
2022-10-23T09:28:32.604Z,100174.38
2022-10-23T09:31:12.788Z,100183.66
2022-10-23T09:33:41.185Z,100188.06
2022-10-23T09:36:29.666Z,100187.47
2022-10-23T09:39:00.693Z,100183.06
2022-10-23T09:41:36.416Z,100189.97
2022-10-23T09:44:07.673Z,100191.59
2022-10-23T09:46:47.737Z,100180.56
2022-10-23T09:49:34.624Z,100184.88
2022-10-23T09:52:08.512Z,100180.00
2022-10-23T09:54:59.319Z,100180.53
2022-10-23T09:57:45.157Z,100173.81
2022-10-23T10:00:19.545Z,100171.75
2022-10-23T10:03:07.379Z,100157.56
2022-10-23T10:06:04.778Z,100163.97
2022-10-23T10:08:53.859Z,100166.94
2022-10-23T10:11:46.271Z,100176.06
2022-10-23T10:14:55.597Z,100175.50
2022-10-23T10:17:26.313Z,100176.00
2022-10-23T10:20:19.240Z,100169.13
2022-10-23T10:23:11.735Z,100161.44
2022-10-23T10:26:00.170Z,100170.28
2022-10-23T10:29:09.761Z,100163.44
2022-10-23T10:32:05.948Z,100133.56
2022-10-23T10:34:55.549Z,100143.53
2022-10-23T10:38:14.942Z,100137.03
2022-10-23T10:41:17.567Z,100122.03
2022-10-23T10:44:25.987Z,100111.47
2022-10-23T10:47:33.274Z,100114.81
2022-10-23T10:50:54.157Z,100121.94
2022-10-23T10:53:46.817Z,100136.56
2022-10-23T10:56:18.943Z,100133.34
2022-10-23T10:59:15.267Z,100137.16
2022-10-23T11:01:51.456Z,100137.63
2022-10-23T11:04:51.186Z,100125.94
2022-10-23T11:07:29.106Z,100118.91
2022-10-23T11:10:06.579Z,100109.78
2022-10-23T11:12:35.916Z,100099.31
2022-10-23T11:15:11.842Z,100096.22
2022-10-23T11:17:44.604Z,100091.28
2022-10-23T11:20:42.533Z,100099.78
2022-10-23T11:23:37.798Z,100088.09
2022-10-23T11:26:58.425Z,100076.28
2022-10-23T11:30:12.638Z,100084.78
2022-10-23T11:33:24.377Z,100075.91
2022-10-23T11:40:01.032Z,100070.88
2022-10-23T12:10:53.631Z,100028.38
2022-10-23T12:13:40.081Z,100024.56
2022-10-23T12:16:08.379Z,100032.69
2022-10-23T12:18:54.340Z,100014.06
2022-10-23T12:21:28.358Z,100011.66
2022-10-23T12:24:39.881Z,100008.16
2022-10-23T12:27:58.874Z,100005.56
2022-10-23T12:30:41.045Z,100007.84
2022-10-23T12:33:36.168Z,100004.09
2022-10-23T12:36:06.802Z,100003.44
2022-10-23T12:38:46.330Z,99997.31
2022-10-23T12:41:19.179Z,99979.69
2022-10-23T12:44:00.253Z,99975.56
2022-10-23T12:46:40.338Z,99967.44
2022-10-23T12:49:19.694Z,99968.50
2022-10-23T12:51:57.455Z,99959.50
2022-10-23T12:54:27.100Z,99958.97
2022-10-23T12:56:55.063Z,99935.59
2022-10-23T12:59:38.542Z,99947.00
2022-10-23T13:02:28.112Z,99949.56
2022-10-23T13:05:00.361Z,99938.88
2022-10-23T13:07:32.224Z,99932.88
2022-10-23T13:10:04.118Z,99930.75
2022-10-23T13:12:54.007Z,99924.34
2022-10-23T13:15:36.110Z,99910.91
2022-10-23T13:18:07.036Z,99922.91
2022-10-23T13:20:45.284Z,99917.63
2022-10-23T13:23:33.145Z,99914.91
2022-10-23T13:26:04.782Z,99904.94
2022-10-23T13:28:43.345Z,99916.47
2022-10-23T13:31:11.526Z,99906.78
2022-10-23T13:34:29.466Z,99898.25
2022-10-23T13:37:01.437Z,99901.53
2022-10-23T13:39:32.861Z,99906.28
2022-10-23T13:42:14.071Z,99894.78
2022-10-23T13:44:42.274Z,99888.47
2022-10-23T13:47:14.471Z,99887.63
2022-10-23T13:49:42.498Z,99887.22
2022-10-23T13:52:15.220Z,99891.63
2022-10-23T13:54:43.643Z,99882.53
2022-10-23T13:57:15.817Z,99874.69
2022-10-23T13:59:44.192Z,99868.97
2022-10-23T14:02:30.453Z,99860.69
2022-10-23T14:04:58.230Z,99878.25
2022-10-23T14:07:26.012Z,99844.28
2022-10-23T14:09:54.452Z,99871.38
2022-10-23T14:12:22.329Z,99848.00
2022-10-23T14:14:54.030Z,99855.00
2022-10-23T14:17:21.981Z,99845.00
2022-10-23T14:19:50.314Z,99859.09
2022-10-23T14:22:18.275Z,99849.44
2022-10-23T14:24:46.187Z,99856.81
2022-10-23T14:27:14.039Z,99858.41
2022-10-23T14:29:41.997Z,99862.97
2022-10-23T14:32:10.177Z,99860.53
2022-10-23T14:34:43.094Z,99868.09
2022-10-23T14:37:11.095Z,99849.44
2022-10-23T14:39:59.514Z,99861.41
2022-10-23T14:42:37.298Z,99857.56
2022-10-23T14:45:11.676Z,99859.97
2022-10-23T14:47:41.062Z,99853.56
2022-10-23T14:50:11.417Z,99842.44
2022-10-23T14:52:41.845Z,99847.16
2022-10-23T14:55:09.748Z,99858.56
2022-10-23T14:57:38.544Z,99853.00
2022-10-23T15:00:07.689Z,99854.00
2022-10-23T15:02:35.717Z,99847.84
2022-10-23T15:05:06.156Z,99848.28
2022-10-23T15:07:34.169Z,99842.16
2022-10-23T15:10:02.654Z,99836.31
2022-10-23T15:12:30.802Z,99839.03
2022-10-23T15:14:59.039Z,99831.03
2022-10-23T15:17:27.186Z,99800.22
2022-10-23T15:19:56.229Z,99814.06
2022-10-23T15:22:24.201Z,99806.94
2022-10-23T15:24:52.490Z,99802.09
2022-10-23T15:27:20.265Z,99803.22
2022-10-23T15:29:48.188Z,99792.38
2022-10-23T15:32:17.136Z,99803.09
2022-10-23T15:34:49.762Z,99796.94
2022-10-23T15:37:17.769Z,99787.81
2022-10-23T15:39:46.650Z,99787.81
2022-10-23T15:42:14.709Z,99763.28
2022-10-23T15:44:42.668Z,99762.16
2022-10-23T15:47:10.492Z,99757.84
2022-10-23T15:49:39.950Z,99757.13
2022-10-23T15:54:39.832Z,99768.53
2022-10-23T15:57:07.774Z,99761.41
2022-10-23T15:59:35.871Z,99760.81
2022-10-23T16:02:05.260Z,99772.06
2022-10-23T16:04:34.128Z,99767.50
2022-10-23T16:07:03.107Z,99759.94
2022-10-23T16:09:31.129Z,99749.09
2022-10-23T16:11:59.481Z,99759.38
2022-10-23T16:14:27.857Z,99740.81
2022-10-23T16:16:57.634Z,99756.03
2022-10-23T16:19:25.803Z,99748.97
2022-10-23T16:21:54.324Z,99755.69
2022-10-23T16:24:22.765Z,99748.09
2022-10-23T16:26:53.234Z,99731.16
2022-10-23T16:29:23.852Z,99736.84
2022-10-23T16:31:55.443Z,99721.16
2022-10-23T16:34:54.588Z,99745.69
2022-10-23T16:37:47.266Z,99747.06
2022-10-23T16:40:20.339Z,99738.94
2022-10-23T16:43:06.966Z,99740.19
2022-10-23T16:45:43.468Z,99736.91
2022-10-23T16:48:11.545Z,99745.88
2022-10-23T16:50:41.088Z,99746.56
2022-10-23T16:53:08.885Z,99756.81
2022-10-23T16:55:41.094Z,99757.06
2022-10-23T16:58:09.001Z,99772.44
2022-10-23T17:00:36.680Z,99780.56
2022-10-23T17:03:05.318Z,99772.84
2022-10-23T17:05:34.726Z,99773.59
2022-10-23T17:20:46.081Z,99834.69
2022-10-23T17:23:17.652Z,99837.66
2022-10-23T17:25:49.560Z,99824.13
2022-10-23T17:28:17.670Z,99863.28
2022-10-23T17:30:45.844Z,99851.16
2022-10-23T17:33:14.304Z,99855.56
2022-10-23T17:35:42.352Z,99895.53
2022-10-23T17:38:18.147Z,99900.94
2022-10-23T17:40:47.566Z,99890.19
2022-10-23T17:43:15.950Z,99945.94
2022-10-23T17:45:45.383Z,100021.22
2022-10-23T17:48:14.610Z,100083.38
2022-10-23T17:50:42.566Z,100052.69
2022-10-23T17:53:12.126Z,100034.13
2022-10-23T17:55:41.818Z,100042.72
2022-10-23T17:58:09.541Z,100013.53
2022-10-23T18:00:38.635Z,100015.25
2022-10-23T18:03:06.392Z,100011.66
2022-10-23T18:05:34.397Z,99994.00
2022-10-23T18:08:02.106Z,99996.00
2022-10-23T18:10:37.285Z,100015.25
2022-10-23T18:13:06.219Z,100024.94
2022-10-23T18:15:54.179Z,100048.13
2022-10-23T18:18:23.684Z,100021.25
2022-10-23T18:20:52.413Z,99989.72
2022-10-23T18:23:20.409Z,99946.91
2022-10-23T18:25:59.221Z,99947.25
2022-10-23T18:28:30.075Z,99961.13
2022-10-23T18:30:58.427Z,99935.75
2022-10-23T18:33:27.701Z,99938.81
2022-10-23T18:35:56.877Z,99968.75
2022-10-23T18:38:24.928Z,99973.16
2022-10-23T18:40:56.979Z,99984.81
2022-10-23T18:43:42.761Z,100007.88
2022-10-23T18:46:13.732Z,99995.84
2022-10-23T18:48:43.681Z,100037.44
2022-10-23T18:51:25.700Z,100068.88
2022-10-23T18:53:55.433Z,99988.50
2022-10-23T18:56:26.781Z,99952.06
2022-10-23T18:58:58.544Z,99940.03
2022-10-23T19:01:28.791Z,99917.06
2022-10-23T19:04:01.816Z,99930.22
2022-10-23T19:06:32.132Z,99945.69
2022-10-23T19:09:07.559Z,99929.50
2022-10-23T19:11:35.574Z,99929.50
2022-10-23T19:14:04.646Z,99931.31
2022-10-23T19:16:40.250Z,99936.09
2022-10-23T19:19:27.556Z,99903.84
2022-10-23T19:21:55.811Z,99905.22
2022-10-23T19:24:38.076Z,99881.63
2022-10-23T19:27:06.508Z,99889.34
2022-10-23T19:29:40.437Z,99886.75
2022-10-23T19:32:09.246Z,99881.72
2022-10-23T19:34:38.067Z,99893.38
2022-10-23T19:37:08.173Z,99892.78
2022-10-23T19:39:38.588Z,99907.28
2022-10-23T19:42:09.731Z,99935.13
2022-10-23T19:44:38.677Z,99922.84
2022-10-23T19:47:08.329Z,99920.38
2022-10-23T19:49:36.509Z,99930.81
2022-10-23T19:52:04.710Z,99913.75
2022-10-23T19:54:32.760Z,99921.97
2022-10-23T19:57:04.738Z,99922.97
2022-10-23T19:59:32.538Z,99914.97
2022-10-23T20:02:00.633Z,99899.53
2022-10-23T20:04:30.709Z,99919.38
2022-10-23T20:06:58.975Z,99923.06
2022-10-23T20:09:27.092Z,99925.66
2022-10-23T20:11:55.968Z,99931.78
2022-10-23T20:14:25.966Z,99936.19
2022-10-23T20:16:56.064Z,99914.50
2022-10-23T20:19:25.014Z,99925.53
2022-10-23T20:21:55.913Z,99918.19
2022-10-23T20:24:23.812Z,99910.94
2022-10-23T20:26:54.336Z,99924.78
2022-10-23T20:29:23.491Z,99926.03
2022-10-23T20:31:53.518Z,99909.59
2022-10-23T20:34:21.851Z,99922.94
2022-10-23T20:36:50.298Z,99938.03
2022-10-23T20:39:25.471Z,99930.31
2022-10-23T20:41:55.364Z,99935.22
2022-10-23T20:44:25.740Z,99931.75
2022-10-23T20:46:54.476Z,99942.47
2022-10-23T20:49:23.867Z,99936.94
2022-10-23T20:51:56.282Z,99929.91
2022-10-23T20:54:44.483Z,99939.25
2022-10-23T20:57:19.143Z,99940.22
2022-10-23T20:59:49.094Z,99926.13
2022-10-23T21:02:17.963Z,99936.66
2022-10-23T21:04:47.727Z,99943.53
2022-10-23T21:07:18.341Z,99939.34
2022-10-23T21:09:47.842Z,99953.47
2022-10-23T21:12:15.759Z,99954.69
2022-10-23T21:14:44.199Z,99952.13
2022-10-23T21:17:16.926Z,99965.47
2022-10-23T21:19:45.845Z,99964.59
2022-10-23T21:22:15.294Z,99965.25
2022-10-23T21:24:43.350Z,99956.25
2022-10-23T21:27:11.541Z,99954.69
2022-10-23T21:29:39.391Z,99954.69
2022-10-23T21:32:07.088Z,99945.09
2022-10-23T21:34:35.306Z,99950.78
2022-10-23T21:37:13.523Z,99953.56
2022-10-23T21:39:43.803Z,99951.25
2022-10-23T21:42:17.807Z,99954.91
2022-10-23T21:44:46.221Z,99960.06
2022-10-23T21:47:14.494Z,99946.22
2022-10-23T21:49:42.339Z,99943.53
2022-10-23T21:52:10.187Z,99939.97
2022-10-23T21:54:38.525Z,99935.16
2022-10-23T21:57:14.603Z,99929.41
2022-10-23T21:59:42.496Z,99939.72
2022-10-23T22:02:10.776Z,99936.50
2022-10-23T22:04:39.500Z,99939.44
2022-10-23T22:07:07.854Z,99952.81
2022-10-23T22:09:36.630Z,99958.69
2022-10-23T22:12:04.432Z,99960.41
2022-10-23T22:14:32.416Z,99967.63
2022-10-23T22:17:00.533Z,99969.56
2022-10-23T22:19:29.008Z,99956.66
2022-10-23T22:21:56.748Z,99935.00
2022-10-23T22:24:25.828Z,99960.97
2022-10-23T22:26:56.208Z,99956.75
2022-10-23T22:29:27.724Z,99948.94
2022-10-23T22:31:57.212Z,99951.00
2022-10-23T22:37:17.686Z,99949.41
2022-10-23T22:39:45.535Z,99960.91
2022-10-23T22:42:13.523Z,99943.03
2022-10-23T22:44:41.442Z,99949.50
2022-10-23T22:47:10.658Z,99943.13
2022-10-23T22:49:39.343Z,99947.16
2022-10-23T22:52:07.063Z,99952.44
2022-10-23T22:54:37.650Z,99956.50
2022-10-23T22:57:05.464Z,99947.66
2022-10-23T22:59:35.276Z,99953.69
2022-10-23T23:02:03.518Z,99948.66
2022-10-23T23:04:37.774Z,99963.50
2022-10-23T23:07:10.238Z,99969.88
2022-10-23T23:09:44.551Z,99958.09
2022-10-23T23:12:14.355Z,99955.53
2022-10-23T23:14:43.125Z,99969.50
2022-10-23T23:17:11.939Z,99951.00
2022-10-23T23:19:40.316Z,99968.41
2022-10-23T23:22:08.292Z,99962.91
2022-10-23T23:24:36.448Z,99982.44
2022-10-23T23:27:04.260Z,99979.84
2022-10-23T23:29:32.550Z,99972.00
2022-10-23T23:32:00.266Z,99980.94
2022-10-23T23:34:29.329Z,99982.13
2022-10-23T23:36:58.144Z,99974.75
2022-10-23T23:39:26.294Z,99985.53
2022-10-23T23:41:54.324Z,99985.00
2022-10-23T23:44:22.597Z,99991.09
2022-10-23T23:46:50.777Z,99992.75
2022-10-23T23:49:19.643Z,100010.75
2022-10-23T23:51:48.757Z,99997.31
2022-10-23T23:54:17.896Z,100004.34
2022-10-23T23:56:47.334Z,100005.06
2022-10-23T23:59:16.090Z,99994.28
